METAR AND TAF INFORMATION
METAR FOR KEEO
ADDS - METARS form results

(2006 UTC 05 March 2021)
Data provider http://aviationweather.gov/metar/data/
 
METAR text: KEEO 051953Z AUTO 00000KT 10SM CLR 07/M03 A3038 RMK AO2 SLP285 T00671028
Conditions at: KEEO (MEEKER , CO, US) observed 1953 UTC 05 March 2021
Temperature: 6.7°C (44°F)
Dewpoint: -2.8°C (27°F) [RH = 51%]
Pressure (altimeter): 30.38 inches Hg (1028.9 mb)
[Sea-level pressure: 1028.5 mb]
Winds: calm
Visibility: 10 or more miles (16+ km)
Ceiling: at least 12,000 feet AGL
Clouds: sky clear below 12,000 feet AGL
Weather: automated observation with no human augmentation;
there may or may not be significant weather present at this time

 AIRPORT MAP

 RUNWAY INFORMATION
Runway 03 Runway length 6500 ft Runway width 60 ft
Runway elevation 6348 ft Runway displaced threshold 0 ft Runway heading 40
Runway 21 Runway length 6500 ft Runway width 60 ft
Runway elevation 6421 ft Runway displaced threshold 500 ft Runway heading 220

 AIRPORT FREQUENCIES
Type ASOS Name ASOS Frequency 135.525 MHZ
Type CNTR Name DENVER CNT Frequency 134.5 MHZ
Type RDO Name DENVER RDO Frequency 122.15 MHZ
Type UNIC Name CTAF/UNICO Frequency 122.8 MHZ

 AIRPORT NEAR NAVIGATION AIDS



Powered by Virtual Airlines Manager [v2.6.2]

Hosted by Utixo.it